Time;durP1;ratioP1;P1;durP2;ratioP2;P2;SDS_P1;SDS_P2;PMS_P1;PMS_P2;Temp;Humidity;BMP_temperature;BMP_pressure;BME280_temperature;BME280_humidity;BME280_pressure;Samples;Min_cycle;Max_cycle;Signal;HPM_P1;HPM_P2
2021/11/25 00:01:37;;;;;;;52.38;30.58;;;;;;;2.33;55.74;100446.78;4480968;32;33780;-55
2021/11/25 00:04:04;;;;;;;59.38;30.50;;;;;;;2.31;55.66;100445.84;4480792;32;35126;-56
2021/11/25 00:06:38;;;;;;;53.03;30.45;;;;;;;2.25;55.79;100445.59;4467186;32;34950;-55
2021/11/25 00:09:05;;;;;;;52.28;28.73;;;;;;;2.30;55.76;100438.97;4466746;32;34140;-56
2021/11/25 00:11:33;;;;;;;53.35;28.38;;;;;;;2.31;55.69;100432.12;4474235;32;34823;-54
2021/11/25 00:14:01;;;;;;;54.08;29.73;;;;;;;2.32;55.50;100436.47;4464671;32;35306;-55
2021/11/25 00:16:29;;;;;;;58.30;31.25;;;;;;;2.30;55.38;100421.00;4464566;32;34210;-54
2021/11/25 00:18:56;;;;;;;60.72;31.50;;;;;;;2.21;55.56;100425.72;4464784;32;33680;-50
2021/11/25 00:21:24;;;;;;;57.50;31.12;;;;;;;2.18;55.90;100427.28;4450112;32;34403;-53
2021/11/25 00:23:52;;;;;;;54.10;29.12;;;;;;;2.25;55.67;100425.06;4463531;32;34561;-54
2021/11/25 00:26:19;;;;;;;57.40;30.45;;;;;;;2.30;55.35;100422.69;4463483;32;34451;-53
2021/11/25 00:28:47;;;;;;;58.63;30.62;;;;;;;2.08;55.96;100427.69;4464228;32;34298;-58
2021/11/25 00:31:14;;;;;;;58.13;31.08;;;;;;;2.19;55.65;100421.38;4464251;32;34063;-52
2021/11/25 00:33:42;;;;;;;59.85;33.10;;;;;;;2.22;55.53;100421.47;4464025;32;34969;-54
2021/11/25 00:36:09;;;;;;;55.20;31.83;;;;;;;2.08;56.00;100433.72;4462950;32;34760;-57
2021/11/25 00:38:37;;;;;;;60.67;31.48;;;;;;;2.00;56.04;100430.81;4464007;32;34091;-56
2021/11/25 00:41:04;;;;;;;59.25;31.45;;;;;;;2.18;55.58;100430.75;4466049;32;34743;-54
2021/11/25 00:43:32;;;;;;;55.03;29.65;;;;;;;2.13;55.62;100439.03;4465772;32;34763;-53
2021/11/25 00:45:59;;;;;;;51.50;28.33;;;;;;;2.12;55.63;100438.16;4465733;32;34561;-56
2021/11/25 00:48:27;;;;;;;57.17;27.75;;;;;;;2.11;55.53;100431.28;4465855;32;34581;-57
2021/11/25 00:50:54;;;;;;;45.42;26.33;;;;;;;2.06;55.57;100427.66;4465945;32;34646;-56
2021/11/25 00:53:22;;;;;;;47.45;26.15;;;;;;;2.03;55.85;100433.53;4464468;32;34969;-56
2021/11/25 00:55:50;;;;;;;44.25;24.90;;;;;;;2.00;55.78;100438.50;4464314;32;35187;-55
2021/11/25 00:58:20;;;;;;;45.97;25.62;;;;;;;2.09;55.53;100437.16;4465642;32;33610;-55
2021/11/25 01:00:48;;;;;;;51.00;27.25;;;;;;;1.92;56.04;100432.19;4464376;32;32676;-56
2021/11/25 01:03:15;;;;;;;45.47;25.17;;;;;;;2.08;55.74;100428.59;4465363;32;35784;-57
2021/11/25 01:05:46;;;;;;;49.50;25.50;;;;;;;2.01;55.59;100424.88;4465466;32;34550;-57
2021/11/25 01:08:15;;;;;;;49.13;24.98;;;;;;;2.04;55.75;100413.87;4463989;32;34789;-57
2021/11/25 01:10:43;;;;;;;46.15;24.95;;;;;;;1.96;55.74;100416.13;4465211;32;33906;-55
2021/11/25 01:13:12;;;;;;;50.28;25.48;;;;;;;1.80;56.28;100412.81;4465047;32;35582;-55
2021/11/25 01:15:40;;;;;;;51.10;25.98;;;;;;;1.87;55.88;100410.59;4464053;32;33648;-57
2021/11/25 01:18:12;;;;;;;46.33;25.73;;;;;;;1.74;56.17;100400.59;4465251;32;34296;-52
2021/11/25 01:20:41;;;;;;;42.78;23.45;;;;;;;1.94;55.80;100412.59;4465413;32;33981;-56
2021/11/25 01:23:15;;;;;;;45.00;23.95;;;;;;;1.79;56.24;100411.91;4465501;32;35151;-55
2021/11/25 01:25:43;;;;;;;45.78;24.75;;;;;;;1.85;55.95;100411.31;4465308;32;34176;-54
2021/11/25 01:28:14;;;;;;;43.33;24.60;;;;;;;1.86;55.75;100392.53;4465189;32;34580;-57
2021/11/25 01:30:43;;;;;;;42.35;23.65;;;;;;;1.94;55.73;100392.09;4465048;32;34026;-51
2021/11/25 01:33:12;;;;;;;41.13;24.52;;;;;;;1.96;55.50;100394.69;4464678;32;34476;-52
2021/11/25 01:35:39;;;;;;;41.20;24.10;;;;;;;1.93;55.87;100385.19;4465163;32;35184;-55
2021/11/25 01:38:07;;;;;;;47.13;23.08;;;;;;;1.91;56.32;100385.94;4464754;32;33740;-53
2021/11/25 01:40:37;;;;;;;43.78;23.58;;;;;;;2.02;56.17;100379.59;4465021;32;34908;-52
2021/11/25 01:43:05;;;;;;;39.10;22.45;;;;;;;1.73;57.11;100388.59;4464858;32;34861;-54
2021/11/25 01:45:32;;;;;;;40.12;22.30;;;;;;;1.86;57.04;100388.28;4464814;32;35821;-55
2021/11/25 01:48:01;;;;;;;44.03;22.85;;;;;;;1.93;57.26;100380.06;4450414;32;34712;-56
2021/11/25 01:50:30;;;;;;;38.88;23.08;;;;;;;1.86;57.56;100388.28;4463753;32;34747;-56
2021/11/25 01:52:58;;;;;;;38.22;21.83;;;;;;;1.96;57.36;100382.75;4464716;32;34799;-55
2021/11/25 01:55:27;;;;;;;36.70;22.48;;;;;;;2.13;57.30;100368.06;4464665;32;34085;-53
2021/11/25 01:57:55;;;;;;;37.67;21.75;;;;;;;2.18;57.50;100375.97;4463550;32;33508;-55
2021/11/25 02:00:46;;;;;;;38.03;22.00;;;;;;;2.24;57.41;100373.66;4465081;32;34436;-54
2021/11/25 02:03:15;;;;;;;39.53;22.60;;;;;;;2.37;57.41;100366.53;4465133;32;35617;-54
2021/11/25 02:05:43;;;;;;;40.17;22.98;;;;;;;2.39;57.59;100364.03;4463883;32;34659;-54
2021/11/25 02:08:11;;;;;;;36.20;22.27;;;;;;;2.36;57.79;100369.03;4465061;32;33550;-53
2021/11/25 02:10:42;;;;;;;37.63;23.17;;;;;;;2.34;57.94;100360.38;4464944;32;35140;-52
2021/11/25 02:13:10;;;;;;;44.47;24.58;;;;;;;2.65;57.40;100353.09;4464992;32;35604;-53
2021/11/25 02:15:38;;;;;;;43.53;23.27;;;;;;;2.67;57.58;100347.22;4463627;32;34468;-53
2021/11/25 02:18:09;;;;;;;42.08;22.87;;;;;;;2.83;57.06;100335.00;4464679;32;34110;-53
2021/11/25 02:20:38;;;;;;;37.35;21.85;;;;;;;2.77;57.36;100325.34;4464944;32;34662;-57
2021/11/25 02:23:07;;;;;;;43.20;23.50;;;;;;;2.64;57.74;100318.84;4464925;32;34567;-56
2021/11/25 02:25:35;;;;;;;36.78;22.08;;;;;;;2.78;57.41;100311.69;4464651;32;34233;-54
2021/11/25 02:28:03;;;;;;;40.30;22.17;;;;;;;2.91;57.18;100306.19;4465066;32;34051;-53
2021/11/25 02:30:31;;;;;;;43.35;22.80;;;;;;;2.99;57.34;100299.66;4464811;32;33956;-58
2021/11/25 02:32:59;;;;;;;41.03;22.40;;;;;;;2.88;57.70;100290.66;4465288;32;35669;-55
2021/11/25 02:35:37;;;;;;;37.38;23.08;;;;;;;3.07;57.56;100295.66;4465049;32;35194;-51
2021/11/25 02:38:05;;;;;;;40.30;23.70;;;;;;;3.06;57.70;100299.06;4465083;32;34740;-56
2021/11/25 02:40:42;;;;;;;40.12;23.35;;;;;;;3.06;57.78;100295.63;4464943;32;33742;-54
2021/11/25 02:43:12;;;;;;;39.83;22.62;;;;;;;3.07;57.85;100297.34;4465382;32;37249;-53
2021/11/25 02:45:44;;;;;;;40.63;23.42;;;;;;;3.11;58.01;100287.28;4465312;32;34598;-57
2021/11/25 02:48:13;;;;;;;40.00;23.25;;;;;;;3.17;58.00;100292.62;4465060;32;33954;-57
2021/11/25 02:50:40;;;;;;;36.65;21.23;;;;;;;3.30;57.64;100287.09;4464822;32;34381;-56
2021/11/25 02:53:08;;;;;;;36.05;19.70;;;;;;;3.20;57.61;100284.16;4465133;32;34989;-56
2021/11/25 02:55:37;;;;;;;36.08;19.65;;;;;;;3.20;57.20;100281.59;4463988;32;34277;-51
2021/11/25 02:58:04;;;;;;;31.65;19.05;;;;;;;3.07;57.39;100272.53;4465144;32;34351;-55
2021/11/25 03:00:36;;;;;;;35.40;20.05;;;;;;;3.11;57.30;100271.84;4465314;32;34156;-56
2021/11/25 03:03:08;;;;;;;;;;;;;;;3.22;57.05;100265.41;4464682;32;34741;-49
2021/11/25 03:05:37;;;;;;;36.50;20.25;;;;;;;3.27;57.06;100258.72;4465488;32;35809;-54
2021/11/25 03:08:06;;;;;;;34.78;19.70;;;;;;;3.24;57.15;100253.47;4464935;32;33335;-56
2021/11/25 03:10:58;;;;;;;39.28;21.48;;;;;;;3.37;57.09;100244.50;4465523;32;35257;-56
2021/11/25 03:13:26;;;;;;;37.25;21.73;;;;;;;3.41;57.28;100244.66;4459035;32;36021;-55
2021/11/25 03:15:54;;;;;;;36.08;22.70;;;;;;;3.41;57.58;100247.25;4465016;32;35145;-53
2021/11/25 03:18:21;;;;;;;34.75;20.55;;;;;;;3.33;57.99;100243.50;4465149;32;34181;-55
2021/11/25 03:20:51;;;;;;;35.35;21.65;;;;;;;3.50;57.90;100240.66;4465289;32;33984;-51
2021/11/25 03:23:21;;;;;;;36.10;21.65;;;;;;;3.56;58.00;100235.72;4465500;32;34593;-53
2021/11/25 03:25:49;;;;;;;41.90;24.98;;;;;;;3.56;58.23;100231.47;4465582;32;35013;-55
2021/11/25 03:28:17;;;;;;;46.15;25.50;;;;;;;3.70;58.73;100229.34;4464108;32;33296;-54
2021/11/25 03:30:45;;;;;;;43.00;25.58;;;;;;;3.77;59.63;100227.03;4464093;32;34009;-54
2021/11/25 03:33:13;;;;;;;45.72;25.75;;;;;;;3.94;60.02;100230.19;4464402;32;35340;-55
2021/11/25 03:35:40;;;;;;;45.97;26.98;;;;;;;4.01;60.51;100226.97;4465726;32;34450;-55
2021/11/25 03:38:08;;;;;;;47.53;27.23;;;;;;;4.06;60.82;100230.56;4465861;32;33285;-56
2021/11/25 03:40:36;;;;;;;49.88;28.33;;;;;;;4.20;60.85;100218.12;4465888;32;35150;-52
2021/11/25 03:43:03;;;;;;;46.42;27.75;;;;;;;4.28;60.95;100199.50;4466001;32;36523;-52
2021/11/25 03:45:31;;;;;;;47.67;27.85;;;;;;;4.39;60.87;100202.44;4466403;32;34492;-52
2021/11/25 03:47:58;;;;;;;48.33;26.48;;;;;;;4.39;61.21;100200.75;4466745;32;34400;-56
2021/11/25 03:50:26;;;;;;;48.60;27.08;;;;;;;4.59;60.61;100196.16;4466423;32;34325;-55
2021/11/25 03:52:54;;;;;;;44.78;26.60;;;;;;;4.68;60.41;100188.72;4466635;32;35500;-57
2021/11/25 03:55:21;;;;;;;44.63;26.95;;;;;;;4.69;60.41;100188.75;4466906;32;35188;-57
2021/11/25 03:57:49;;;;;;;45.15;27.20;;;;;;;4.80;60.16;100189.09;4466698;32;33559;-55
2021/11/25 04:00:18;;;;;;;50.63;28.62;;;;;;;4.87;59.92;100179.81;4466609;32;34236;-56
2021/11/25 04:02:48;;;;;;;45.42;26.87;;;;;;;4.93;59.77;100182.56;4466715;32;35337;-55
2021/11/25 04:05:16;;;;;;;47.13;28.77;;;;;;;4.94;59.80;100181.75;4466931;32;35136;-53
2021/11/25 04:07:43;;;;;;;45.50;27.42;;;;;;;4.99;59.70;100187.91;4466782;32;34100;-52
2021/11/25 04:10:13;;;;;;;45.17;26.80;;;;;;;5.06;59.54;100179.50;4466705;32;33910;-53
2021/11/25 04:12:41;;;;;;;44.92;28.30;;;;;;;5.09;59.55;100182.16;4466949;32;37358;-57
2021/11/25 04:15:09;;;;;;;45.67;27.30;;;;;;;5.08;59.62;100180.41;4466132;32;34506;-48
2021/11/25 04:17:37;;;;;;;46.22;28.33;;;;;;;5.18;59.28;100169.53;4467262;32;34240;-53
2021/11/25 04:20:06;;;;;;;50.35;28.90;;;;;;;5.11;59.49;100175.34;4467147;32;33821;-50
2021/11/25 04:22:34;;;;;;;46.28;27.98;;;;;;;5.20;59.19;100175.59;4467130;32;34720;-55
2021/11/25 04:25:03;;;;;;;49.53;28.40;;;;;;;5.31;58.86;100171.59;4467021;32;34902;-55
2021/11/25 04:27:30;;;;;;;50.08;28.10;;;;;;;5.29;58.95;100160.38;4467444;32;33882;-53
2021/11/25 04:35:33;;;;;;;44.55;26.92;;;;;;;5.39;58.73;100164.94;4467504;32;34638;-52
2021/11/25 04:38:01;;;;;;;48.17;28.67;;;;;;;5.31;58.78;100158.69;4467539;32;34425;-57
2021/11/25 04:40:34;;;;;;;51.20;28.55;;;;;;;5.32;58.83;100160.47;4467218;32;34719;-53
2021/11/25 04:43:04;;;;;;;48.17;28.40;;;;;;;5.35;58.78;100155.34;4466217;32;34383;-55
2021/11/25 04:45:33;;;;;;;47.90;27.83;;;;;;;5.41;58.61;100160.69;4467140;32;34524;-55
2021/11/25 04:48:01;;;;;;;46.90;28.27;;;;;;;5.39;58.69;100154.63;4467400;32;33496;-53
2021/11/25 04:50:29;;;;;;;44.28;27.00;;;;;;;5.39;58.71;100155.50;4467205;32;34742;-52
2021/11/25 04:52:56;;;;;;;45.22;27.35;;;;;;;5.34;58.88;100158.78;4466849;32;35987;-56
2021/11/25 04:55:24;;;;;;;52.88;28.87;;;;;;;5.45;58.65;100157.34;4467075;32;35727;-52
2021/11/25 04:57:52;;;;;;;48.72;29.05;;;;;;;5.45;58.64;100152.19;4466993;32;34132;-54
2021/11/25 05:00:21;;;;;;;45.67;28.15;;;;;;;5.53;58.48;100149.81;4467223;32;34104;-56
2021/11/25 05:02:48;;;;;;;44.60;28.00;;;;;;;5.55;58.39;100141.28;4466161;32;34900;-55
2021/11/25 05:05:16;;;;;;;49.88;27.70;;;;;;;5.49;58.48;100143.72;4465804;32;35859;-57
2021/11/25 05:07:44;;;;;;;46.90;28.38;;;;;;;5.55;58.28;100137.81;4467160;32;33901;-54
2021/11/25 05:10:12;;;;;;;49.80;28.83;;;;;;;5.63;58.03;100137.19;4467037;32;34491;-50
2021/11/25 05:12:40;;;;;;;45.03;26.67;;;;;;;5.59;58.12;100143.09;4467103;32;34866;-54
2021/11/25 05:15:10;;;;;;;45.75;26.85;;;;;;;5.59;58.15;100129.31;4467062;32;34270;-52
2021/11/25 05:17:38;;;;;;;43.60;26.30;;;;;;;5.43;58.42;100123.78;4466841;32;33416;-57
2021/11/25 05:20:09;;;;;;;46.75;27.20;;;;;;;5.46;58.49;100125.56;4467166;32;34951;-50
2021/11/25 05:22:37;;;;;;;46.33;28.73;;;;;;;5.46;58.48;100125.56;4465995;32;36196;-55
2021/11/25 05:25:06;;;;;;;44.05;28.00;;;;;;;5.55;58.23;100125.78;4467662;32;34675;-57
2021/11/25 05:27:34;;;;;;;46.47;26.87;;;;;;;5.59;58.18;100122.44;4469254;32;33575;-51
2021/11/25 05:30:03;;;;;;;44.60;27.48;;;;;;;5.62;58.05;100117.38;4469236;32;33654;-54
2021/11/25 05:32:31;;;;;;;49.75;26.90;;;;;;;5.60;58.10;100115.56;4469320;32;35665;-54
2021/11/25 05:34:58;;;;;;;44.35;27.35;;;;;;;5.55;58.16;100123.22;4469306;32;34547;-55
2021/11/25 05:37:26;;;;;;;46.47;26.70;;;;;;;5.65;57.81;100125.19;4469229;32;34553;-58
2021/11/25 05:39:57;;;;;;;48.78;29.17;;;;;;;5.66;57.81;100121.75;4468043;32;34520;-50
2021/11/25 05:42:25;;;;;;;46.33;27.35;;;;;;;5.54;58.25;100115.44;4469078;32;35767;-54
2021/11/25 05:44:53;;;;;;;48.40;27.40;;;;;;;5.53;58.26;100114.56;4469588;32;35137;-54
2021/11/25 05:47:20;;;;;;;45.97;27.67;;;;;;;5.51;58.35;100121.41;4469280;32;34567;-51
2021/11/25 05:49:48;;;;;;;42.88;25.33;;;;;;;5.49;58.30;100115.34;4469446;32;33789;-54
2021/11/25 05:52:15;;;;;;;43.63;27.70;;;;;;;5.49;58.45;100123.06;4469460;32;34851;-55
2021/11/25 05:54:43;;;;;;;44.65;26.50;;;;;;;5.36;58.76;100118.41;4469314;32;35548;-56
2021/11/25 05:57:10;;;;;;;45.95;27.13;;;;;;;5.41;58.68;100114.25;4469619;32;33933;-52
2021/11/25 05:59:38;;;;;;;46.75;27.52;;;;;;;5.39;58.75;100113.34;4469240;32;33661;-53
2021/11/25 06:02:05;;;;;;;44.47;27.35;;;;;;;5.58;58.27;100110.41;4469502;32;35802;-51
2021/11/25 06:04:33;;;;;;;45.72;26.50;;;;;;;5.72;57.86;100101.28;4467810;32;33798;-56
2021/11/25 06:07:01;;;;;;;46.00;26.90;;;;;;;5.69;57.95;100103.78;4469230;32;34549;-56
2021/11/25 06:09:28;;;;;;;49.85;27.83;;;;;;;5.63;58.17;100108.81;4468499;32;33664;-54
2021/11/25 06:11:56;;;;;;;44.80;27.02;;;;;;;5.61;58.32;100107.03;4469194;32;34642;-53
2021/11/25 06:14:23;;;;;;;46.80;27.60;;;;;;;5.64;58.29;100101.91;4469325;32;34945;-52
2021/11/25 06:16:51;;;;;;;44.33;26.27;;;;;;;5.65;58.30;100104.53;4467733;32;33130;-53
2021/11/25 06:19:19;;;;;;;49.00;27.10;;;;;;;5.66;58.25;100106.28;4468887;32;33140;-53
2021/11/25 06:21:46;;;;;;;44.63;26.37;;;;;;;5.70;58.17;100100.38;4467376;32;35022;-53
2021/11/25 06:24:14;;;;;;;50.80;26.40;;;;;;;5.77;57.92;100097.09;4468828;32;34693;-51
2021/11/25 06:26:44;;;;;;;51.28;27.33;;;;;;;5.65;58.45;100103.66;4469010;32;33633;-54
2021/11/25 06:29:11;;;;;;;48.47;25.95;;;;;;;5.65;58.47;100096.81;4469052;32;33891;-54
2021/11/25 06:31:39;;;;;;;43.50;25.52;;;;;;;5.65;58.52;100099.38;4467964;32;35583;-54
2021/11/25 06:34:07;;;;;;;35.65;19.33;;;;;;;5.77;58.32;100099.69;4467927;32;34727;-55
2021/11/25 06:36:34;;;;;;;46.60;28.15;;;;;;;6.02;73.58;100104.59;4467668;32;34558;-55
2021/11/25 06:39:02;;;;;;;47.67;27.13;;;;;;;6.20;66.65;100098.09;4468979;32;33737;-57
2021/11/25 06:41:29;;;;;;;50.53;26.50;;;;;;;6.25;58.86;100099.06;4468818;32;34802;-55
2021/11/25 06:43:57;;;;;;;49.45;27.77;;;;;;;6.25;57.55;100096.50;4468766;32;34206;-49
2021/11/25 06:46:24;;;;;;;45.97;26.37;;;;;;;6.23;57.56;100095.59;4468925;32;33363;-56
2021/11/25 06:48:58;;;;;;;52.78;28.48;;;;;;;6.28;57.56;100099.13;4469351;32;35072;-53
2021/11/25 06:51:27;;;;;;;47.35;27.25;;;;;;;6.10;57.48;100092.75;4469333;32;35531;-52
2021/11/25 06:53:54;;;;;;;44.60;25.42;;;;;;;6.20;63.78;100090.34;4469452;32;34267;-50
2021/11/25 06:56:22;;;;;;;47.88;26.42;;;;;;;6.23;58.01;100090.41;4469394;32;34061;-53
2021/11/25 06:58:51;;;;;;;46.78;26.92;;;;;;;6.10;57.82;100090.16;4469162;32;33682;-56
2021/11/25 07:01:19;;;;;;;47.03;27.67;;;;;;;6.04;58.13;100090.00;4469390;32;35663;-57
2021/11/25 07:03:47;;;;;;;48.90;27.20;;;;;;;6.04;58.21;100094.28;4469104;32;34393;-51
2021/11/25 07:06:14;;;;;;;44.63;26.65;;;;;;;5.96;58.25;100094.13;4469319;32;33624;-57
2021/11/25 07:08:41;;;;;;;48.13;28.38;;;;;;;5.99;58.12;100091.59;4468749;32;33610;-53
2021/11/25 07:11:09;;;;;;;60.70;29.77;;;;;;;5.96;58.26;100094.13;4468826;32;35916;-56
2021/11/25 07:13:37;;;;;;;59.85;33.33;;;;;;;6.24;70.40;100095.63;4469173;32;35150;-53
2021/11/25 07:16:05;;;;;;;44.80;25.52;;;;;;;6.46;65.77;100089.19;4467834;32;33625;-54
2021/11/25 07:18:37;;;;;;;45.53;27.23;;;;;;;6.28;60.93;100081.91;4468710;32;33853;-53
2021/11/25 07:21:04;;;;;;;52.13;27.50;;;;;;;6.18;61.03;100082.53;4469069;32;35748;-56
2021/11/25 07:23:31;;;;;;;49.20;26.67;;;;;;;6.35;59.69;100077.75;4469001;32;34595;-49
2021/11/25 07:25:59;;;;;;;43.87;26.75;;;;;;;6.44;58.07;100085.72;4469078;32;34316;-53
2021/11/25 07:28:27;;;;;;;47.33;26.65;;;;;;;6.40;57.60;100082.16;4469050;32;34693;-48
2021/11/25 07:30:55;;;;;;;46.20;26.65;;;;;;;6.33;57.73;100076.84;4469385;32;35902;-56
2021/11/25 07:33:23;;;;;;;48.72;27.25;;;;;;;6.38;57.52;100086.44;4469133;32;34298;-53
2021/11/25 07:35:51;;;;;;;44.30;26.55;;;;;;;6.45;57.30;100085.72;4469060;32;33354;-54
2021/11/25 07:38:18;;;;;;;48.87;26.27;;;;;;;6.34;57.68;100082.06;4469035;32;33904;-53
2021/11/25 07:40:48;;;;;;;50.17;27.62;;;;;;;6.34;57.74;100074.31;4468744;32;35350;-53
2021/11/25 07:43:16;;;;;;;43.40;26.60;;;;;;;6.33;57.60;100076.84;4469052;32;34499;-53
2021/11/25 07:45:44;;;;;;;46.25;25.37;;;;;;;6.34;57.66;100073.44;4469027;32;34143;-53
2021/11/25 07:48:12;;;;;;;42.38;26.45;;;;;;;6.43;57.45;100063.28;4468658;32;33701;-55
2021/11/25 07:50:42;;;;;;;48.70;27.52;;;;;;;6.38;57.59;100065.78;4468914;32;35595;-56
2021/11/25 07:53:10;;;;;;;45.20;26.37;;;;;;;6.25;58.06;100057.75;4468931;32;34540;-52
2021/11/25 07:55:37;;;;;;;49.50;26.25;;;;;;;6.27;58.04;100053.47;4468870;32;34209;-52
2021/11/25 07:58:05;;;;;;;44.83;25.55;;;;;;;6.35;57.84;100062.25;4468842;32;35284;-50
2021/11/25 08:00:32;;;;;;;47.80;27.02;;;;;;;6.49;57.54;100042.75;4468774;32;34945;-54
2021/11/25 08:03:00;;;;;;;42.97;23.42;;;;;;;6.40;57.90;100042.53;4468651;32;34312;-52
2021/11/25 08:05:28;;;;;;;47.30;25.37;;;;;;;6.64;64.61;100041.31;4468692;32;33924;-54
2021/11/25 08:07:58;;;;;;;43.40;25.37;;;;;;;6.78;58.58;100036.41;4469004;32;34710;-56
2021/11/25 08:10:27;;;;;;;44.30;25.42;;;;;;;6.83;57.32;100030.47;4468056;32;35664;-55
2021/11/25 08:12:58;;;;;;;42.62;26.02;;;;;;;6.83;56.95;100030.47;4467020;32;34660;-53
2021/11/25 08:15:26;;;;;;;41.95;25.00;;;;;;;6.85;56.72;100032.25;4467009;32;33978;-53
2021/11/25 08:17:55;;;;;;;43.33;25.00;;;;;;;6.90;56.63;100026.28;4468325;32;33665;-53
2021/11/25 08:20:22;;;;;;;42.62;25.65;;;;;;;6.95;56.74;100023.78;4468362;32;34814;-57
2021/11/25 08:22:51;;;;;;;44.30;25.48;;;;;;;7.05;56.30;100015.34;4468686;32;34316;-55
2021/11/25 08:25:21;;;;;;;39.78;25.33;;;;;;;6.93;56.51;100016.00;4468336;32;34333;-50
2021/11/25 08:27:50;;;;;;;47.58;25.60;;;;;;;6.88;56.78;100009.00;4468449;32;33786;-51
2021/11/25 08:30:18;;;;;;;44.97;26.00;;;;;;;7.03;56.38;100002.41;4467192;32;34650;-51
2021/11/25 08:32:45;;;;;;;43.65;26.92;;;;;;;6.87;56.75;100002.94;4468366;32;34605;-51
2021/11/25 08:35:13;;;;;;;41.33;24.80;;;;;;;6.90;56.66;100000.44;4468331;32;33563;-53
2021/11/25 08:37:42;;;;;;;45.33;25.48;;;;;;;7.17;56.12;100000.91;4468257;32;34326;-55
2021/11/25 08:40:12;;;;;;;48.83;25.55;;;;;;;7.19;55.99;99998.34;4468214;32;34985;-54
2021/11/25 08:42:39;;;;;;;44.95;25.75;;;;;;;7.12;56.41;100004.25;4468040;32;35141;-53
2021/11/25 08:45:07;;;;;;;44.35;25.65;;;;;;;7.16;56.38;99987.94;4468077;32;33405;-54
2021/11/25 08:47:35;;;;;;;46.47;25.42;;;;;;;7.47;55.46;99978.09;4468070;32;33775;-52
2021/11/25 08:50:05;;;;;;;48.63;26.25;;;;;;;7.47;55.40;99980.69;4468041;32;34978;-56
2021/11/25 08:52:32;;;;;;;48.30;24.87;;;;;;;7.44;55.41;99970.28;4467015;32;34272;-56
2021/11/25 08:55:00;;;;;;;44.63;25.58;;;;;;;7.22;56.01;99978.59;4466666;32;34159;-53
2021/11/25 08:57:27;;;;;;;44.10;24.58;;;;;;;7.23;56.09;99974.25;4467646;32;34768;-54
2021/11/25 08:59:55;;;;;;;41.80;24.48;;;;;;;7.30;55.96;99971.78;4468072;32;35838;-55
2021/11/25 09:02:23;;;;;;;44.10;26.65;;;;;;;7.23;56.15;99967.38;4469923;32;34331;-57
2021/11/25 09:04:51;;;;;;;47.03;25.35;;;;;;;7.30;55.94;99956.28;4470048;32;33552;-56
2021/11/25 09:07:18;;;;;;;45.92;26.60;;;;;;;7.38;55.85;99953.81;4469994;32;34163;-51
2021/11/25 09:09:46;;;;;;;45.12;25.40;;;;;;;7.58;55.53;99951.50;4470329;32;35477;-53
2021/11/25 09:12:13;;;;;;;44.67;25.02;;;;;;;7.42;56.02;99951.28;4470124;32;34296;-53
2021/11/25 09:14:41;;;;;;;45.22;25.42;;;;;;;7.55;56.44;99948.88;4470259;32;33505;-53
2021/11/25 09:17:11;;;;;;;46.25;25.77;;;;;;;7.69;55.40;99955.97;4470041;32;33982;-51
2021/11/25 09:19:39;;;;;;;44.33;25.02;;;;;;;7.59;55.57;99945.47;4469967;32;34732;-53
2021/11/25 09:22:06;;;;;;;39.38;23.55;;;;;;;7.56;55.85;99953.22;4470125;32;35148;-51
2021/11/25 09:24:34;;;;;;;44.22;26.12;;;;;;;7.65;55.80;99948.16;4469874;32;33620;-54
2021/11/25 09:27:03;;;;;;;42.70;24.60;;;;;;;7.37;56.50;99941.69;4469980;32;33929;-50
2021/11/25 09:29:31;;;;;;;47.85;25.98;;;;;;;7.57;56.18;99944.59;4469977;32;34848;-56
2021/11/25 09:31:59;;;;;;;40.42;24.80;;;;;;;7.65;56.23;99948.16;4469913;32;35022;-51
2021/11/25 09:34:27;;;;;;;42.08;25.85;;;;;;;7.79;56.00;99946.63;4468817;32;34305;-53
2021/11/25 09:36:55;;;;;;;42.30;24.58;;;;;;;7.86;55.83;99944.12;4469824;32;34636;-57
2021/11/25 09:39:25;;;;;;;41.45;26.70;;;;;;;7.89;55.58;99938.97;4470136;32;35721;-52
2021/11/25 09:41:54;;;;;;;37.80;23.35;;;;;;;7.81;55.89;99939.75;4469642;32;34907;-52
2021/11/25 09:44:22;;;;;;;39.08;23.62;;;;;;;7.92;55.64;99933.84;4470057;32;33287;-53
2021/11/25 09:46:56;;;;;;;40.10;24.12;;;;;;;8.02;55.58;99935.69;4468678;32;33805;-54
2021/11/25 09:49:27;;;;;;;40.55;24.73;;;;;;;8.39;54.46;99929.22;4469933;32;35707;-56
2021/11/25 09:51:58;;;;;;;45.53;25.55;;;;;;;8.13;55.13;99923.72;4470205;32;34270;-52
2021/11/25 09:54:27;;;;;;;39.47;25.23;;;;;;;8.20;55.08;99914.34;4468708;32;33465;-57
2021/11/25 09:56:54;;;;;;;43.17;24.87;;;;;;;8.15;55.45;99901.31;4470104;32;35339;-57
2021/11/25 09:59:22;;;;;;;43.13;24.87;;;;;;;8.22;55.22;99901.37;4469987;32;34591;-54
2021/11/25 10:01:56;;;;;;;38.70;23.52;;;;;;;8.35;55.10;99895.50;4469816;32;34180;-57
2021/11/25 10:04:23;;;;;;;41.78;23.87;;;;;;;8.43;54.86;99892.16;4468564;32;33771;-53
2021/11/25 10:06:56;;;;;;;38.55;22.77;;;;;;;8.47;54.74;99893.03;4469934;32;33725;-53
2021/11/25 10:09:38;;;;;;;40.67;24.25;;;;;;;8.52;54.67;99889.63;4469689;32;34882;-55
2021/11/25 10:12:32;;;;;;;37.63;21.92;;;;;;;8.65;54.33;99882.84;4469676;32;34594;-55
2021/11/25 10:15:06;;;;;;;40.30;23.45;;;;;;;8.51;54.66;99874.91;4469638;32;34306;-50
2021/11/25 10:17:48;;;;;;;38.85;23.48;;;;;;;8.40;54.86;99870.50;4468642;32;33919;-55
2021/11/25 10:20:19;;;;;;;37.25;24.30;;;;;;;8.22;55.18;99863.41;4469691;32;35740;-57
2021/11/25 10:23:03;;;;;;;36.28;22.77;;;;;;;8.31;55.23;99865.22;4468395;32;34187;-58
2021/11/25 10:25:56;;;;;;;41.25;23.65;;;;;;;8.41;54.97;99851.50;4469609;32;33434;-54
2021/11/25 10:28:47;;;;;;;35.35;22.62;;;;;;;8.51;54.62;99849.00;4469624;32;34107;-56
2021/11/25 10:31:21;;;;;;;42.47;24.35;;;;;;;8.58;54.50;99849.94;4469563;32;34971;-55
2021/11/25 10:34:25;;;;;;;41.13;23.92;;;;;;;8.42;54.92;99843.75;4469648;32;35075;-57
2021/11/25 10:42:18;;;;;;;38.03;23.85;;;;;;;8.39;55.17;99833.34;4469307;32;34810;-55
2021/11/25 10:44:51;;;;;;;41.97;25.33;;;;;;;8.36;55.01;99817.78;4469536;32;34324;-51
2021/11/25 10:47:20;;;;;;;38.42;24.05;;;;;;;8.35;55.31;99810.84;4469739;32;34599;-55
2021/11/25 10:49:51;;;;;;;40.50;24.87;;;;;;;8.59;54.73;99810.19;4469422;32;34121;-54
2021/11/25 10:52:21;;;;;;;40.12;24.00;;;;;;;8.46;55.12;99808.38;4468450;32;35150;-53
2021/11/25 10:54:54;;;;;;;38.97;24.58;;;;;;;8.53;55.08;99815.34;4469464;32;36337;-54
2021/11/25 10:57:35;;;;;;;39.08;24.92;;;;;;;8.49;55.37;99814.44;4469728;32;33545;-53
2021/11/25 11:00:23;;;;;;;43.10;24.12;;;;;;;8.47;55.47;99805.78;4469382;32;34327;-54
2021/11/25 11:03:08;;;;;;;40.42;24.37;;;;;;;8.50;55.69;99792.84;4469323;32;35012;-52
2021/11/25 11:05:57;;;;;;;40.58;23.23;;;;;;;8.47;56.56;99787.63;4469199;32;34148;-50
2021/11/25 11:08:28;;;;;;;39.60;23.05;;;;;;;8.56;58.04;99790.28;4469585;32;33494;-53
2021/11/25 11:10:58;;;;;;;38.15;24.08;;;;;;;8.79;56.67;99773.16;4469282;32;34080;-52
2021/11/25 11:18:56;;;;;;;39.50;25.02;;;;;;;8.82;55.38;99760.22;4468806;32;33587;-52
2021/11/25 11:21:40;;;;;;;39.08;23.70;;;;;;;8.87;55.42;99754.22;4468954;32;33600;-51
2021/11/25 11:24:18;;;;;;;38.08;23.83;;;;;;;8.85;55.56;99757.66;4468376;32;34665;-55
2021/11/25 11:26:57;;;;;;;35.17;23.30;;;;;;;8.98;55.48;99749.94;4468874;32;34138;-53
2021/11/25 11:29:27;;;;;;;35.25;22.85;;;;;;;9.10;55.21;99747.41;4469007;32;34107;-54
2021/11/25 11:31:58;;;;;;;40.25;23.65;;;;;;;9.06;55.42;99738.72;4468896;32;33951;-52
2021/11/25 11:34:27;;;;;;;37.72;21.85;;;;;;;9.08;55.50;99741.34;4454944;32;34729;-49
2021/11/25 11:36:56;;;;;;;35.88;22.85;;;;;;;9.30;54.95;99735.38;4467517;32;34495;-48
2021/11/25 11:39:26;;;;;;;38.08;23.50;;;;;;;9.26;55.22;99741.44;4468996;32;33496;-51
2021/11/25 11:42:02;;;;;;;34.65;21.70;;;;;;;9.45;54.74;99738.03;4468689;32;33495;-52
2021/11/25 11:44:30;;;;;;;39.67;21.70;;;;;;;9.37;55.03;99731.94;4468733;32;34674;-56
2021/11/25 11:47:02;;;;;;;37.50;22.00;;;;;;;9.45;55.04;99732.84;4467849;32;34571;-55